Time;durP1;ratioP1;P1;durP2;ratioP2;P2;SDS_P1;SDS_P2;PMS_P1;PMS_P2;Temp;Humidity;BMP_temperature;BMP_pressure;BME280_temperature;BME280_humidity;BME280_pressure;Samples;Min_cycle;Max_cycle;Signal;HPM_P1;HPM_P2
2021/03/30 00:01:13;;;;;;;;;;;;;;;23.81;36.99;101107.19;4484433;32;34206;-56
2021/03/30 00:03:40;;;;;;;;;;;;;;;23.81;37.05;101116.22;4484547;32;34185;-51
2021/03/30 00:06:07;;;;;;;;;;;;;;;23.79;37.07;101112.84;4484467;32;33795;-47
2021/03/30 00:08:34;;;;;;;;;;;;;;;23.79;37.14;101109.28;4484165;32;33293;-56
2021/03/30 00:11:01;;;;;;;;;;;;;;;23.78;37.01;101103.00;4481977;32;34105;-48
2021/03/30 00:13:28;;;;;;;;;;;;;;;23.78;37.19;101103.00;4476002;31;33866;-47
2021/03/30 00:15:55;;;;;;;;;;;;;;;23.78;37.30;101107.59;4483273;32;34069;-48
2021/03/30 00:18:22;;;;;;;;;;;;;;;23.78;37.27;101113.03;4481560;32;32836;-48
2021/03/30 00:20:49;;;;;;;;;;;;;;;23.77;37.29;101105.91;4484158;32;33739;-46
2021/03/30 00:23:16;;;;;;;;;;;;;;;23.76;37.33;101099.62;4483751;32;33780;-50
2021/03/30 00:25:43;;;;;;;;;;;;;;;23.75;37.33;101094.37;4484235;32;34195;-47
2021/03/30 00:28:11;;;;;;;;;;;;;;;23.74;37.36;101100.88;4481783;32;33237;-47
2021/03/30 00:30:37;;;;;;;;;;;;;;;23.74;37.19;101106.31;4483165;32;34543;-49
2021/03/30 00:33:05;;;;;;;;;;;;;;;23.72;37.17;101097.47;4482818;32;34611;-47
2021/03/30 00:35:32;;;;;;;;;;;;;;;23.72;37.10;101100.22;4476717;32;33888;-55
2021/03/30 00:37:59;;;;;;;;;;;;;;;23.71;37.23;101093.91;4480646;31;33982;-50
2021/03/30 00:40:26;;;;;;;;;;;;;;;23.71;37.20;101098.53;4469184;32;34785;-55
2021/03/30 00:42:53;;;;;;;;;;;;;;;23.70;37.29;101088.69;4472884;32;34099;-56
2021/03/30 00:45:20;;;;;;;;;;;;;;;23.70;37.49;101091.41;4484147;32;34844;-44
2021/03/30 00:47:48;;;;;;;;;;;;;;;23.70;37.51;101096.84;4484243;32;33326;-59
2021/03/30 00:50:21;;;;;;;;;;;;;;;23.68;37.42;101097.87;4484274;32;34003;-47
2021/03/30 00:52:49;;;;;;;;;;;;;;;23.68;37.41;101092.41;4484164;32;34946;-57
2021/03/30 00:55:17;;;;;;;;;;;;;;;23.67;37.51;101100.78;4470430;32;33624;-54
2021/03/30 00:57:45;;;;;;;;;;;;;;;23.67;37.29;101095.34;4470291;32;32849;-50
2021/03/30 01:00:12;;;;;;;;;;;;;;;23.66;37.26;101099.13;4483749;32;34350;-48
2021/03/30 01:02:39;;;;;;;;;;;;;;;23.66;37.55;101096.41;4483852;32;33965;-52
2021/03/30 01:05:06;;;;;;;;;;;;;;;23.66;37.50;101107.28;4484107;32;34030;-50
2021/03/30 01:07:34;;;;;;;;;;;;;;;23.65;37.62;101097.44;4483970;32;33455;-53
2021/03/30 01:10:00;;;;;;;;;;;;;;;23.65;37.61;101098.28;4483865;32;34146;-58
2021/03/30 01:12:33;;;;;;;;;;;;;;;23.64;37.62;101099.31;4483991;32;34113;-49
2021/03/30 01:15:00;;;;;;;;;;;;;;;23.64;37.57;101095.72;4479981;32;34317;-46
2021/03/30 01:17:47;;;;;;;;;;;;;;;23.64;37.52;101095.72;4474745;32;33561;-46
2021/03/30 01:20:20;;;;;;;;;;;;;;;23.62;37.68;101090.47;4459789;32;34144;-46
2021/03/30 01:23:05;;;;;;;;;;;;;;;23.62;37.69;101103.25;4468063;32;34903;-49
2021/03/30 01:25:33;;;;;;;;;;;;;;;23.62;37.74;101098.63;4468065;32;34104;-48
2021/03/30 01:28:09;;;;;;;;;;;;;;;23.60;37.66;101102.59;4453848;32;33320;-51
2021/03/30 01:30:36;;;;;;;;;;;;;;;23.60;37.68;101098.00;4455878;32;33574;-50
2021/03/30 01:33:11;;;;;;;;;;;;;;;23.59;37.67;101099.00;4467946;32;35071;-57
2021/03/30 01:35:38;;;;;;;;;;;;;;;23.59;37.60;101090.00;4471232;32;33945;-52
2021/03/30 01:38:05;;;;;;;;;;;;;;;23.58;37.63;101089.16;4485404;32;33302;-53
2021/03/30 01:40:33;;;;;;;;;;;;;;;23.59;37.58;101092.72;4446992;32;34099;-52
2021/03/30 01:43:03;;;;;;;;;;;;;;;23.58;37.56;101088.31;4470193;32;34343;-47
2021/03/30 01:45:30;;;;;;;;;;;;;;;23.58;37.53;101088.31;4455646;32;34827;-46
2021/03/30 01:47:56;;;;;;;;;;;;;;;23.58;37.46;101088.31;4455558;32;33700;-48
2021/03/30 01:50:23;;;;;;;;;;;;;;;23.57;37.43;101089.38;4455598;32;34169;-53
2021/03/30 01:52:50;;;;;;;;;;;;;;;23.56;37.44;101080.34;4458752;32;33107;-51
2021/03/30 01:55:17;;;;;;;;;;;;;;;23.56;37.68;101077.63;4469689;32;34012;-48
2021/03/30 01:57:45;;;;;;;;;;;;;;;23.56;37.62;101068.63;4455662;32;33319;-58
2021/03/30 02:00:13;;;;;;;;;;;;;;;23.54;37.49;101071.50;4469630;32;34950;-51
2021/03/30 02:02:41;;;;;;;;;;;;;;;23.55;37.68;101070.50;4455565;32;34664;-59
2021/03/30 02:05:08;;;;;;;;;;;;;;;23.54;37.60;101066.06;4469655;32;34650;-56
2021/03/30 02:07:35;;;;;;;;;;;;;;;23.54;37.59;101073.41;4470603;32;33404;-53
2021/03/30 02:10:10;;;;;;;;;;;;;;;23.54;37.68;101070.69;4471220;32;34702;-51
2021/03/30 02:12:44;;;;;;;;;;;;;;;23.54;37.67;101068.78;4485352;32;34999;-56
2021/03/30 02:15:13;;;;;;;;;;;;;;;23.53;37.52;101072.56;4485333;32;34201;-52
2021/03/30 02:17:59;;;;;;;;;;;;;;;23.53;37.55;101069.00;4485183;32;33384;-51
2021/03/30 02:20:27;;;;;;;;;;;;;;;23.53;37.62;101063.56;4485342;32;33994;-51
2021/03/30 02:23:00;;;;;;;;;;;;;;;23.51;37.95;101058.31;4471223;32;33881;-54
2021/03/30 02:25:28;;;;;;;;;;;;;;;23.52;37.72;101064.59;4471054;32;34739;-46
2021/03/30 02:27:57;;;;;;;;;;;;;;;23.50;37.52;101061.22;4470671;32;33801;-50
2021/03/30 02:30:24;;;;;;;;;;;;;;;23.50;37.67;101061.22;4485136;32;34957;-48
2021/03/30 02:32:51;;;;;;;;;;;;;;;23.50;37.57;101061.22;4470983;32;34901;-56
2021/03/30 02:35:18;;;;;;;;;;;;;;;23.50;37.72;101053.03;4485008;32;34747;-57
2021/03/30 02:37:45;;;;;;;;;;;;;;;23.48;37.75;101053.25;4485061;32;32955;-47
2021/03/30 02:40:13;;;;;;;;;;;;;;;23.49;37.67;101051.34;4471239;32;34896;-58
2021/03/30 02:42:40;;;;;;;;;;;;;;;23.48;37.85;101052.41;4484505;32;33640;-49
2021/03/30 02:45:09;;;;;;;;;;;;;;;23.48;37.99;101052.41;4485160;32;33722;-59
2021/03/30 02:47:36;;;;;;;;;;;;;;;23.47;37.91;101059.75;4485172;32;33328;-56
2021/03/30 02:50:05;;;;;;;;;;;;;;;23.47;38.04;101057.00;4470866;32;34178;-58
2021/03/30 02:52:33;;;;;;;;;;;;;;;23.48;37.70;101049.69;4485347;32;35023;-49
2021/03/30 02:55:00;;;;;;;;;;;;;;;23.49;37.82;101056.81;4485195;32;33838;-53
2021/03/30 02:57:27;;;;;;;;;;;;;;;23.47;37.76;101046.13;4484865;32;34257;-53
2021/03/30 02:59:54;;;;;;;;;;;;;;;23.48;37.90;101044.22;4470857;32;34789;-50
2021/03/30 03:02:21;;;;;;;;;;;;;;;23.46;37.66;101044.44;4466444;32;34346;-47
2021/03/30 03:04:49;;;;;;;;;;;;;;;23.47;37.75;101051.56;4475856;32;34026;-48
2021/03/30 03:07:16;;;;;;;;;;;;;;;23.47;37.97;101043.41;4455325;32;33295;-49
2021/03/30 03:09:42;;;;;;;;;;;;;;;23.46;37.76;101051.78;4483502;32;34254;-54
2021/03/30 03:12:10;;;;;;;;;;;;;;;23.46;37.75;101047.16;4470599;32;34194;-44
2021/03/30 03:14:37;;;;;;;;;;;;;;;23.46;37.70;101041.72;4470845;32;33989;-53
2021/03/30 03:17:05;;;;;;;;;;;;;;;23.45;37.77;101045.44;4470452;32;34031;-45
2021/03/30 03:19:32;;;;;;;;;;;;;;;23.44;37.79;101041.06;4470510;32;34833;-46
2021/03/30 03:21:59;;;;;;;;;;;;;;;23.43;37.70;101040.22;4470533;32;35127;-49
2021/03/30 03:24:25;;;;;;;;;;;;;;;23.42;38.06;101037.69;4470650;32;34183;-51
2021/03/30 03:26:52;;;;;;;;;;;;;;;23.43;37.72;101040.22;4470681;32;33405;-47
2021/03/30 03:29:19;;;;;;;;;;;;;;;23.43;37.97;101040.22;4484893;32;33689;-45
2021/03/30 03:31:46;;;;;;;;;;;;;;;23.42;37.73;101037.69;4484794;32;34134;-52
2021/03/30 03:34:14;;;;;;;;;;;;;;;23.41;37.67;101039.56;4484379;32;34249;-47
2021/03/30 03:36:44;;;;;;;;;;;;;;;23.41;37.70;101036.03;4484757;32;33413;-48
2021/03/30 03:39:12;;;;;;;;;;;;;;;23.41;37.77;101041.47;4484763;32;35172;-48
2021/03/30 03:41:42;;;;;;;;;;;;;;;23.40;37.93;101043.31;4484898;32;33741;-52
2021/03/30 03:44:09;;;;;;;;;;;;;;;23.40;37.94;101037.88;4484753;32;34280;-60
2021/03/30 03:46:35;;;;;;;;;;;;;;;23.39;37.76;101043.53;4484703;32;33596;-47
2021/03/30 03:49:04;;;;;;;;;;;;;;;23.38;37.72;101037.25;4484527;32;34282;-44
2021/03/30 03:51:39;;;;;;;;;;;;;;;23.39;37.77;101038.06;4484682;32;33657;-47
2021/03/30 03:54:07;;;;;;;;;;;;;;;23.38;37.73;101039.12;4469554;32;34125;-46
2021/03/30 03:56:39;;;;;;;;;;;;;;;23.38;37.78;101031.78;4484223;32;33045;-46
2021/03/30 03:59:06;;;;;;;;;;;;;;;23.37;37.68;101030.13;4484733;32;33626;-51
2021/03/30 04:01:53;;;;;;;;;;;;;;;23.36;37.80;101033.87;4470205;32;34540;-49
2021/03/30 04:04:23;;;;;;;;;;;;;;;23.36;37.78;101033.00;4470807;32;34036;-45
2021/03/30 04:06:52;;;;;;;;;;;;;;;23.36;37.66;101036.59;4484582;32;33255;-47
2021/03/30 04:09:20;;;;;;;;;;;;;;;23.34;37.60;101030.50;4470350;32;33610;-47
2021/03/30 04:11:51;;;;;;;;;;;;;;;23.35;37.82;101026.72;4470323;32;34073;-54
2021/03/30 04:14:18;;;;;;;;;;;;;;;23.35;37.82;101025.88;4484375;32;34283;-59
2021/03/30 04:16:44;;;;;;;;;;;;;;;23.35;38.01;101026.72;4470295;32;33353;-53
2021/03/30 04:19:12;;;;;;;;;;;;;;;23.34;38.17;101018.75;4484513;32;33808;-59
2021/03/30 04:21:39;;;;;;;;;;;;;;;23.34;38.06;101021.47;4484619;32;35589;-52
2021/03/30 04:24:07;;;;;;;;;;;;;;;23.34;37.93;101022.31;4484326;32;34845;-60
2021/03/30 04:26:38;;;;;;;;;;;;;;;23.34;37.87;101019.59;4484419;32;33312;-57
2021/03/30 04:29:05;;;;;;;;;;;;;;;23.34;37.94;101026.94;4484346;32;33678;-57
2021/03/30 04:31:32;;;;;;;;;;;;;;;23.33;38.21;101026.09;4480176;32;34126;-58
2021/03/30 04:33:59;;;;;;;;;;;;;;;23.34;38.14;101029.66;4478999;31;34344;-55
2021/03/30 04:36:25;;;;;;;;;;;;;;;23.33;38.18;101030.69;4469766;32;34227;-58
2021/03/30 04:38:52;;;;;;;;;;;;;;;23.34;38.13;101038.66;4468548;32;34024;-58
2021/03/30 04:41:19;;;;;;;;;;;;;;;23.34;38.12;101040.56;4472876;32;34027;-56
2021/03/30 04:43:46;;;;;;;;;;;;;;;23.32;38.25;101029.87;4468458;32;34767;-58
2021/03/30 04:46:13;;;;;;;;;;;;;;;23.33;38.11;101033.44;4474123;32;33242;-54
2021/03/30 04:48:40;;;;;;;;;;;;;;;23.33;37.90;101033.44;4474330;32;34074;-58
2021/03/30 04:51:07;;;;;;;;;;;;;;;23.33;37.95;101030.69;4478961;32;34197;-48
2021/03/30 04:53:34;;;;;;;;;;;;;;;23.33;38.13;101031.53;4484280;32;34078;-47
2021/03/30 04:56:02;;;;;;;;;;;;;;;23.33;38.02;101041.59;4468538;32;33996;-50
2021/03/30 04:58:28;;;;;;;;;;;;;;;23.32;38.13;101032.59;4474241;32;34171;-55
2021/03/30 05:00:55;;;;;;;;;;;;;;;23.31;38.13;101044.50;4476920;31;35281;-49
2021/03/30 05:03:22;;;;;;;;;;;;;;;23.32;37.90;101048.09;4483106;32;35391;-55
2021/03/30 05:05:49;;;;;;;;;;;;;;;23.33;37.99;101053.31;4482899;32;32803;-58
2021/03/30 05:08:16;;;;;;;;;;;;;;;23.32;37.81;101048.94;4468545;32;34917;-50
2021/03/30 05:10:43;;;;;;;;;;;;;;;23.32;38.03;101045.38;4468330;32;34373;-53
2021/03/30 05:13:09;;;;;;;;;;;;;;;23.32;38.06;101048.09;4468489;32;34134;-55
2021/03/30 05:15:36;;;;;;;;;;;;;;;23.30;37.91;101047.44;4468339;32;33331;-53
2021/03/30 05:18:03;;;;;;;;;;;;;;;23.29;37.83;101049.31;4472759;32;34203;-46
2021/03/30 05:20:30;;;;;;;;;;;;;;;23.29;38.05;101043.84;4483683;32;34942;-59
2021/03/30 05:22:57;;;;;;;;;;;;;;;23.29;37.93;101043.03;4483784;32;34632;-54
2021/03/30 05:25:24;;;;;;;;;;;;;;;23.29;38.13;101051.19;4483932;32;33479;-46
2021/03/30 05:27:51;;;;;;;;;;;;;;;23.29;38.09;101045.75;4483687;32;34726;-58
2021/03/30 05:30:18;;;;;;;;;;;;;;;23.29;38.02;101049.31;4484134;32;33856;-56
2021/03/30 05:32:45;;;;;;;;;;;;;;;23.29;37.87;101049.31;4483761;32;34051;-53
2021/03/30 05:35:12;;;;;;;;;;;;;;;23.29;38.06;101052.03;4483992;32;34039;-50
2021/03/30 05:37:43;;;;;;;;;;;;;;;23.30;37.92;101052.88;4483883;32;34197;-57
2021/03/30 05:40:11;;;;;;;;;;;;;;;23.30;37.93;101064.59;4483690;32;34023;-58
2021/03/30 05:42:41;;;;;;;;;;;;;;;23.29;37.88;101053.91;4480557;32;34125;-54
2021/03/30 05:45:08;;;;;;;;;;;;;;;23.31;37.93;101068.16;4468235;32;33385;-50
2021/03/30 05:47:36;;;;;;;;;;;;;;;23.28;37.81;101055.78;4467636;32;34064;-57
2021/03/30 05:50:06;;;;;;;;;;;;;;;23.28;38.11;101057.69;4467671;32;34937;-55
2021/03/30 05:53:02;;;;;;;;;;;;;;;23.28;38.19;101054.97;4467794;32;34461;-55
2021/03/30 05:55:27;;;;;;;;;;;;;;;23.28;38.06;101060.41;4455900;32;33785;-48
2021/03/30 05:57:54;;;;;;;;;;;;;;;23.28;37.85;101069.41;4468028;32;34150;-51
2021/03/30 06:00:22;;;;;;;;;;;;;;;23.28;37.95;101071.31;4467592;32;34053;-53
2021/03/30 06:02:50;;;;;;;;;;;;;;;23.28;37.86;101079.47;4469053;32;34389;-59
2021/03/30 06:05:21;;;;;;;;;;;;;;;23.28;37.94;101079.47;4467668;32;33987;-55
2021/03/30 06:07:48;;;;;;;;;;;;;;;23.28;38.00;101082.19;4460762;32;34910;-52
2021/03/30 06:10:15;;;;;;;;;;;;;;;23.28;38.13;101082.19;4467254;32;33943;-57
2021/03/30 06:12:42;;;;;;;;;;;;;;;23.29;37.83;101089.31;4475341;32;34012;-51
2021/03/30 06:15:25;;;;;;;;;;;;;;;23.28;37.61;101076.75;4463316;32;33439;-51
2021/03/30 06:17:54;;;;;;;;;;;;;;;23.26;37.67;101082.38;4462055;32;33398;-58
2021/03/30 06:20:23;;;;;;;;;;;;;;;23.26;37.69;101078.81;4455598;32;34169;-53
2021/03/30 06:22:51;;;;;;;;;;;;;;;23.25;37.58;101077.13;4469136;32;34053;-54
2021/03/30 06:25:37;;;;;;;;;;;;;;;23.23;37.52;101077.31;4479444;32;32802;-52
2021/03/30 06:28:10;;;;;;;;;;;;;;;23.23;37.47;101079.22;4470701;32;34921;-57
2021/03/30 06:30:38;;;;;;;;;;;;;;;23.20;37.49;101074.16;4485260;32;34145;-57
2021/03/30 06:33:05;;;;;;;;;;;;;;;23.20;37.53;101085.88;4485111;32;34688;-52
2021/03/30 06:35:32;;;;;;;;;;;;;;;23.19;37.60;101086.06;4485232;32;33166;-50
2021/03/30 06:37:59;;;;;;;;;;;;;;;23.20;37.74;101079.59;4484891;32;34108;-57
2021/03/30 06:40:29;;;;;;;;;;;;;;;23.20;37.60;101085.03;4485179;32;34097;-54
2021/03/30 06:44:24;;;;;;;;;;;;;;;23.18;37.60;101085.25;4485439;32;34064;-56
2021/03/30 06:45:58;;;;;;;;;;;;;;;23.18;37.69;101090.69;4485023;32;32909;-51
2021/03/30 06:48:25;;;;;;;;;;;;;;;23.20;37.71;101093.19;4470782;32;34055;-54
2021/03/30 06:50:52;;;;;;;;;;;;;;;23.19;37.63;101091.53;4468579;32;33770;-48
2021/03/30 06:53:22;;;;;;;;;;;;;;;23.17;37.58;101095.28;4454853;32;34091;-48
2021/03/30 06:55:50;;;;;;;;;;;;;;;23.17;37.59;101098.00;4469246;32;33301;-48
2021/03/30 06:58:17;;;;;;;;;;;;;;;23.17;37.58;101095.28;4470400;32;34785;-46
2021/03/30 07:00:45;;;;;;;;;;;;;;;23.17;37.59;101100.75;4455296;32;34844;-47
2021/03/30 07:03:14;;;;;;;;;;;;;;;23.16;37.59;101099.03;4469204;32;34341;-55
2021/03/30 07:05:41;;;;;;;;;;;;;;;23.16;37.59;101101.75;4470106;32;33191;-54
2021/03/30 07:08:12;;;;;;;;;;;;;;;23.15;37.59;101102.78;4475693;32;33715;-48
2021/03/30 07:10:41;;;;;;;;;;;;;;;23.15;37.57;101104.69;4479416;32;34933;-47
2021/03/30 07:13:08;;;;;;;;;;;;;;;23.15;37.61;101107.41;4471604;32;35311;-44
2021/03/30 07:15:35;;;;;;;;;;;;;;;23.14;37.61;101095.66;4485205;32;34005;-58
2021/03/30 07:18:21;;;;;;;;;;;;;;;23.14;37.57;101106.56;4484925;32;35475;-48
2021/03/30 07:21:08;;;;;;;;;;;;;;;23.14;37.57;101101.13;4485031;32;33878;-53
2021/03/30 07:23:35;;;;;;;;;;;;;;;23.13;37.58;101096.72;4447488;32;34024;-44
2021/03/30 07:26:06;;;;;;;;;;;;;;;23.13;37.55;101104.03;4469124;32;33855;-50
2021/03/30 07:28:50;;;;;;;;;;;;;;;23.13;37.54;101095.88;4468878;32;33587;-59
2021/03/30 07:31:19;;;;;;;;;;;;;;;23.13;37.52;101102.16;4454959;32;34072;-54
2021/03/30 07:33:47;;;;;;;;;;;;;;;23.11;37.54;101097.94;4470599;32;34007;-47
2021/03/30 07:36:16;;;;;;;;;;;;;;;23.12;37.51;101100.44;4477439;31;33374;-54
2021/03/30 07:38:46;;;;;;;;;;;;;;;23.12;37.50;101111.34;4463637;32;33635;-47
2021/03/30 07:41:17;;;;;;;;;;;;;;;23.11;37.48;101101.50;4461472;32;35193;-47
2021/03/30 07:43:44;;;;;;;;;;;;;;;23.12;37.47;101103.16;4469682;32;34164;-46
2021/03/30 07:46:11;;;;;;;;;;;;;;;23.12;37.46;101110.50;4461840;32;33257;-61
2021/03/30 07:48:39;;;;;;;;;;;;;;;23.11;37.46;101112.38;4469019;32;34882;-56
2021/03/30 07:51:12;;;;;;;;;;;;;;;23.11;37.44;101112.38;4470129;32;34975;-51
2021/03/30 07:53:50;;;;;;;;;;;;;;;23.10;37.43;101118.03;4484436;32;34703;-60
2021/03/30 07:56:23;;;;;;;;;;;;;;;23.11;37.42;101123.28;4477470;32;33475;-59
2021/03/30 07:58:51;;;;;;;;;;;;;;;23.11;37.42;101123.28;4468847;32;33885;-47
2021/03/30 08:01:18;;;;;;;;;;;;;;;23.10;37.41;101115.31;4468824;32;34209;-54
2021/03/30 08:03:46;;;;;;;;;;;;;;;23.11;37.40;101122.44;4468654;32;34016;-60
2021/03/30 08:06:36;;;;;;;;;;;;;;;23.11;37.39;101125.16;4474571;32;33101;-50
2021/03/30 08:09:09;;;;;;;;;;;;;;;23.09;37.39;101128.06;4468626;32;33890;-49
2021/03/30 08:11:49;;;;;;;;;;;;;;;23.09;37.38;101125.34;4468822;32;35063;-53
2021/03/30 08:14:16;;;;;;;;;;;;;;;23.08;37.36;101123.66;4471322;32;34719;-57
2021/03/30 08:17:00;;;;;;;;;;;;;;;23.09;37.36;101135.41;4478861;32;32716;-47
2021/03/30 08:19:28;;;;;;;;;;;;;;;23.09;37.35;101136.25;4484416;32;35004;-56
2021/03/30 08:21:56;;;;;;;;;;;;;;;23.09;37.35;101128.06;4456119;32;34107;-47
2021/03/30 08:24:23;;;;;;;;;;;;;;;23.08;37.34;101131.84;4468922;32;34857;-58
2021/03/30 08:26:50;;;;;;;;;;;;;;;23.09;37.33;101124.50;4473780;32;34018;-51
2021/03/30 08:29:23;;;;;;;;;;;;;;;23.09;37.35;101113.62;4484416;32;33988;-54
2021/03/30 08:31:51;;;;;;;;;;;;;;;23.10;37.37;101116.16;4484351;32;34111;-49
2021/03/30 08:34:19;;;;;;;;;;;;;;;23.11;37.42;101120.53;4484167;32;34058;-54
2021/03/30 08:36:45;;;;;;;;;;;;;;;23.13;37.46;101117.66;4484342;32;33339;-53
2021/03/30 08:39:19;;;;;;;;;;;;;;;23.13;37.51;101121.22;4484150;32;34909;-56
2021/03/30 08:41:46;;;;;;;;;;;;;;;23.15;37.57;101129.19;4484238;32;35007;-58
2021/03/30 08:44:14;;;;;;;;;;;;;;;23.16;37.59;101125.41;4480514;32;34932;-57
2021/03/30 08:46:41;;;;;;;;;;;;;;;23.16;37.62;101128.97;4468893;32;33482;-49
2021/03/30 08:49:26;;;;;;;;;;;;;;;23.19;37.69;101121.47;4468320;32;34121;-49
2021/03/30 08:51:56;;;;;;;;;;;;;;;23.18;37.77;101123.34;4468667;32;34201;-54
2021/03/30 08:54:24;;;;;;;;;;;;;;;23.18;37.89;101123.34;4468725;32;34131;-53
2021/03/30 08:57:03;;;;;;;;;;;;;;;23.20;37.86;101131.31;4468690;32;33380;-52
2021/03/30 08:59:30;;;;;;;;;;;;;;;23.21;37.80;101133.84;4468307;32;34134;-55
2021/03/30 09:02:14;;;;;;;;;;;;;;;23.22;37.90;101132.81;4468464;32;34968;-57
2021/03/30 09:04:45;;;;;;;;;;;;;;;23.19;38.21;101138.66;4468961;32;34033;-54
2021/03/30 09:07:12;;;;;;;;;;;;;;;23.23;37.96;101123.62;4468800;32;32913;-53
2021/03/30 09:09:39;;;;;;;;;;;;;;;23.25;37.94;101132.44;4476232;32;33658;-45
2021/03/30 09:12:18;;;;;;;;;;;;;;;23.24;38.03;101136.19;4484139;32;34564;-49
2021/03/30 09:15:01;;;;;;;;;;;;;;;23.28;38.05;101139.38;4484051;32;34442;-50
2021/03/30 09:17:28;;;;;;;;;;;;;;;23.27;37.97;101126.78;4483561;32;33428;-56
2021/03/30 09:20:16;;;;;;;;;;;;;;;23.26;37.84;101133.25;4478736;32;33226;-47
2021/03/30 09:22:45;;;;;;;;;;;;;;;23.26;37.72;101130.53;4467867;32;34194;-45
2021/03/30 09:27:43;;;;;;;;;;;;;;;23.28;37.68;101133.94;4469909;32;33365;-49
2021/03/30 09:30:10;;;;;;;;;;;;;;;23.27;37.78;101134.94;4468077;32;34174;-45
2021/03/30 09:32:38;;;;;;;;;;;;;;;23.28;37.78;101129.31;4468093;32;35022;-46
2021/03/30 09:35:12;;;;;;;;;;;;;;;23.28;37.76;101129.31;4467907;32;34281;-55
2021/03/30 09:37:40;;;;;;;;;;;;;;;23.30;37.73;101137.28;4482067;32;33575;-48
2021/03/30 09:40:10;;;;;;;;;;;;;;;23.28;37.78;101126.59;4483685;32;34960;-46
2021/03/30 09:42:49;;;;;;;;;;;;;;;23.30;37.72;101120.94;4470998;32;34616;-51
2021/03/30 09:45:20;;;;;;;;;;;;;;;23.30;37.72;101115.50;4469521;32;33942;-53
2021/03/30 09:47:47;;;;;;;;;;;;;;;23.30;37.79;101120.94;4454803;32;33679;-51
2021/03/30 09:50:14;;;;;;;;;;;;;;;23.29;37.92;101119.28;4465683;32;33650;-59
2021/03/30 09:52:41;;;;;;;;;;;;;;;23.28;37.91;101114.87;4470425;32;34044;-45
2021/03/30 09:55:08;;;;;;;;;;;;;;;23.29;37.86;101114.66;4485581;32;34103;-53
2021/03/30 09:57:35;;;;;;;;;;;;;;;23.30;37.86;101123.69;4485567;32;33044;-48
2021/03/30 10:00:02;;;;;;;;;;;;;;;23.29;37.85;101119.28;4480099;31;34230;-47
2021/03/30 10:02:34;;;;;;;;;;;;;;;23.30;37.78;101124.50;4469678;32;34225;-45
2021/03/30 10:05:05;;;;;;;;;;;;;;;23.31;37.80;101122.63;4469899;32;33734;-46
2021/03/30 10:07:32;;;;;;;;;;;;;;;23.30;37.97;101121.78;4469933;32;34288;-46
2021/03/30 10:10:06;;;;;;;;;;;;;;;23.30;37.95;101123.69;4459357;32;34028;-52
2021/03/30 10:12:36;;;;;;;;;;;;;;;23.29;37.98;101125.56;4485434;32;33637;-46
2021/03/30 10:15:04;;;;;;;;;;;;;;;23.31;37.93;101128.06;4485480;32;34573;-47
2021/03/30 10:17:31;;;;;;;;;;;;;;;23.31;37.88;101119.91;4478471;32;34112;-50
2021/03/30 10:19:58;;;;;;;;;;;;;;;23.33;37.81;101123.31;4469933;32;34857;-46
2021/03/30 10:22:33;;;;;;;;;;;;;;;23.33;37.84;101126.03;4482678;32;35594;-52
2021/03/30 10:25:12;;;;;;;;;;;;;;;23.32;37.84;101129.78;4485288;32;34265;-45
2021/03/30 10:27:38;;;;;;;;;;;;;;;23.32;37.84;101127.06;4485593;32;33866;-54
2021/03/30 10:30:06;;;;;;;;;;;;;;;23.32;37.82;101125.19;4485085;32;34186;-60
2021/03/30 10:32:51;;;;;;;;;;;;;;;23.33;37.90;101118.69;4471606;32;34121;-47
2021/03/30 10:35:18;;;;;;;;;;;;;;;23.32;37.91;101117.00;4469434;32;34155;-49
2021/03/30 10:37:45;;;;;;;;;;;;;;;23.32;37.94;101116.19;4469562;32;33004;-45
2021/03/30 10:40:12;;;;;;;;;;;;;;;23.32;37.93;101105.28;4469514;32;34110;-55
2021/03/30 10:42:40;;;;;;;;;;;;;;;23.32;37.93;101110.72;4482989;32;34221;-60
2021/03/30 10:45:08;;;;;;;;;;;;;;;23.32;37.92;101106.12;4485283;32;33761;-47
2021/03/30 10:47:38;;;;;;;;;;;;;;;23.32;37.82;101102.56;4485235;32;33531;-45
2021/03/30 10:50:09;;;;;;;;;;;;;;;23.30;37.89;101097.28;4484806;32;34856;-45
2021/03/30 10:52:37;;;;;;;;;;;;;;;23.33;37.79;101093.34;4471460;32;34121;-47
2021/03/30 10:55:09;;;;;;;;;;;;;;;23.32;37.84;101094.37;4455733;32;34080;-60
2021/03/30 10:57:39;;;;;;;;;;;;;;;23.31;37.80;101092.69;4455340;32;33815;-58
2021/03/30 11:00:07;;;;;;;;;;;;;;;23.35;37.73;101092.09;4469354;32;34036;-47
2021/03/30 11:02:34;;;;;;;;;;;;;;;23.46;37.56;101092.62;4481680;32;34091;-49
2021/03/30 11:05:04;;;;;;;;;;;;;;;23.59;37.46;101092.72;4485022;32;34232;-60
2021/03/30 11:07:31;;;;;;;;;;;;;;;23.71;37.28;101083.03;4485044;32;33226;-44
2021/03/30 11:09:58;;;;;;;;;;;;;;;23.88;37.08;101094.47;4470560;32;33782;-60
2021/03/30 11:12:25;;;;;;;;;;;;;;;24.03;36.85;101092.47;4473398;32;33705;-52
2021/03/30 11:14:52;;;;;;;;;;;;;;;24.19;36.64;101092.16;4469261;32;34359;-54
2021/03/30 11:17:18;;;;;;;;;;;;;;;24.31;36.45;101087.00;4469016;32;34318;-56
2021/03/30 11:19:46;;;;;;;;;;;;;;;24.46;36.26;101092.34;4468952;32;33860;-57
2021/03/30 11:22:12;;;;;;;;;;;;;;;24.59;36.06;101091.56;4477575;32;34207;-48
2021/03/30 11:24:42;;;;;;;;;;;;;;;24.72;35.85;101077.97;4484591;32;34711;-49
2021/03/30 11:27:09;;;;;;;;;;;;;;;24.84;35.70;101072.75;4485236;32;34298;-47
2021/03/30 11:34:58;;;;;;;;;;;;;;;25.08;35.32;101071.37;4482471;32;34148;-51
2021/03/30 11:39:55;;;;;;;;;;;;;;;25.16;35.14;101069.28;4484632;32;34918;-52
2021/03/30 11:42:22;;;;;;;;;;;;;;;25.19;35.06;101074.34;4474019;32;34977;-47
2021/03/30 11:44:49;;;;;;;;;;;;;;;25.21;35.01;101065.94;4468879;32;34148;-59
2021/03/30 11:47:16;;;;;;;;;;;;;;;25.21;34.96;101073.31;4469222;32;34121;-47
2021/03/30 11:49:43;;;;;;;;;;;;;;;25.21;34.85;101068.69;4468803;32;34795;-52
2021/03/30 11:52:10;;;;;;;;;;;;;;;25.21;34.82;101056.91;4477403;32;34334;-48
2021/03/30 11:54:37;;;;;;;;;;;;;;;25.21;34.86;101065.09;4484329;32;33624;-61
2021/03/30 11:57:04;;;;;;;;;;;;;;;25.19;34.88;101059.84;4484786;32;33333;-53
2021/03/30 11:59:31;;;;;;;;;;;;;;;25.17;34.91;101057.31;4484432;31;34049;-57
2021/03/30 12:01:58;;;;;;;;;;;;;;;25.15;34.91;101062.16;4476896;32;35002;-56
2021/03/30 12:04:26;;;;;;;;;;;;;;;25.13;34.97;101063.41;4468824;32;35094;-55
2021/03/30 12:06:53;;;;;;;;;;;;;;;25.11;35.00;101062.78;4468834;32;33544;-54
2021/03/30 12:09:20;;;;;;;;;;;;;;;25.08;35.00;101049.53;4468114;32;34815;-46
2021/03/30 12:11:47;;;;;;;;;;;;;;;25.05;35.10;101061.69;4481236;31;32259;-53
2021/03/30 12:14:15;;;;;;;;;;;;;;;25.02;35.13;101048.44;4483083;32;34895;-47
2021/03/30 12:16:45;;;;;;;;;;;;;;;25.01;35.07;101048.66;4484133;32;33440;-44
2021/03/30 12:19:13;;;;;;;;;;;;;;;24.97;35.18;101050.13;4484316;32;34221;-44
2021/03/30 12:21:40;;;;;;;;;;;;;;;24.96;35.29;101046.56;4483514;32;34969;-47
2021/03/30 12:24:07;;;;;;;;;;;;;;;24.94;35.47;101043.16;4482930;32;34145;-44
2021/03/30 12:26:34;;;;;;;;;;;;;;;24.91;35.54;101047.16;4483323;32;33280;-46
2021/03/30 12:29:03;;;;;;;;;;;;;;;24.89;35.69;101038.31;4475019;32;34780;-45
2021/03/30 12:31:30;;;;;;;;;;;;;;;24.86;35.78;101030.56;4473962;31;34193;-52
2021/03/30 12:33:57;;;;;;;;;;;;;;;24.84;35.85;101031.81;4483573;32;34014;-55
2021/03/30 12:36:24;;;;;;;;;;;;;;;24.81;35.95;101030.34;4474516;32;33398;-54
2021/03/30 12:38:50;;;;;;;;;;;;;;;24.78;36.00;101024.44;4479809;31;34894;-50
2021/03/30 12:41:18;;;;;;;;;;;;;;;24.76;36.09;101024.66;4468228;32;34170;-45
2021/03/30 12:43:45;;;;;;;;;;;;;;;24.73;36.18;101019.63;4475445;32;33768;-49
2021/03/30 12:46:11;;;;;;;;;;;;;;;24.69;36.19;101019.19;4483850;32;33912;-55
2021/03/30 12:48:38;;;;;;;;;;;;;;;24.67;36.23;101013.09;4484137;32;34163;-45
2021/03/30 12:51:05;;;;;;;;;;;;;;;24.65;36.32;101012.44;4484133;32;35560;-50
2021/03/30 12:53:32;;;;;;;;;;;;;;;24.64;36.40;101008.03;4469811;32;35326;-55
2021/03/30 12:55:59;;;;;;;;;;;;;;;24.62;36.54;101003.81;4483714;32;33475;-50